KMGN

Details ICAO KMGN
Name HARBOR SPRINGS
Region United States
Timezone America/Detroit (UTC-5.0)
Plans Departing 2
Arriving 5
Stats Elevation 686 ft / 209 m (AMSL)
Location 45.425460° -84.913659°
Runways 1
Magnetic Variation 6.802° W
Sunrise 2017-12-16 13:14:55 UTC / 2017-12-16 08:14:55 Local
Sunset 2017-12-16 21:58:39 UTC / 2017-12-16 16:58:39 Local
Advertisement - Login to hide

Runways

ID Width Length Bearing (true) Bearing (mag) Surface Threshold Offset Overrun Length
10 75 ft / 23 m 4,147 ft / 1,264 m 96.07° 102.87° Asphalt 445 ft / 136 m 0 ft / 0 m
28 75 ft / 23 m 4,147 ft / 1,264 m 276.08° 282.88° Asphalt 445 ft / 136 m 0 ft / 0 m

Map

Weather


0- 5 10 15 20 25 30 35+ Temperature / ° C

Clouds and Precipitation
Forecast for 2017-12-16 18:00 UTC. Updated 6 minutes ago

Ground ~20,000 ft ~40,000 ft Winds

METAR

KMGN 161515Z AUTO 05006KT 5SM -SN OVC018 M11/M14 A3003 RMK AO2 T11141141

TAF

Not found

Frequencies

Recorded 119.92 MHz AWOS 3
Unicom 122.80 MHz CTAF/UNICOM
Warning: Do not use this data for real-world aviation or navigation. No guarantee of current accuracy is given.